createdAt,value
2019-02-14T00:00:19.010Z,10.2
2019-02-14T00:02:18.681Z,10.7
2019-02-14T00:04:19.345Z,10.2
2019-02-14T00:06:18.651Z,9.4
2019-02-14T00:08:19.308Z,11.9
2019-02-14T00:10:19.444Z,10.2
2019-02-14T00:12:19.118Z,9.8
2019-02-14T00:14:18.792Z,9.1
2019-02-14T00:16:18.696Z,10.3
2019-02-14T00:18:19.432Z,11.1
2019-02-14T00:20:19.117Z,10.4
2019-02-14T00:22:18.770Z,10.7
2019-02-14T00:24:19.422Z,8.8
2019-02-14T00:26:18.768Z,10.3
2019-02-14T00:28:18.474Z,10.6
2019-02-14T00:30:19.168Z,10.2
2019-02-14T00:32:18.819Z,11.1
2019-02-14T00:34:18.479Z,12.2
2019-02-14T00:36:19.311Z,9.8
2019-02-14T00:38:18.980Z,10.9
2019-02-14T00:40:19.176Z,10.6
2019-02-14T00:42:18.858Z,8.2
2019-02-14T00:44:18.531Z,9.3
2019-02-14T00:46:19.362Z,10
2019-02-14T00:48:19.032Z,11.1
2019-02-14T00:50:18.716Z,11.3
2019-02-14T00:52:19.375Z,10.3
2019-02-14T00:54:19.066Z,9.4
2019-02-14T00:56:19.429Z,11.1
2019-02-14T00:58:19.072Z,9.8
2019-02-14T01:00:18.746Z,9.1
2019-02-14T01:02:19.405Z,10.4
2019-02-14T01:04:19.070Z,10.6
2019-02-14T01:06:18.905Z,10.1
2019-02-14T01:08:18.576Z,10
2019-02-14T01:10:18.690Z,10.3
2019-02-14T01:12:19.333Z,9.2
2019-02-14T01:14:18.987Z,10.4
2019-02-14T01:16:19.317Z,8.5
2019-02-14T01:18:19.058Z,9.3
2019-02-14T01:20:18.758Z,8.7
2019-02-14T01:22:19.415Z,9.7
2019-02-14T01:24:19.083Z,9.9
2019-02-14T01:26:19.399Z,8.1
2019-02-14T01:28:19.073Z,8.4
2019-02-14T01:30:18.741Z,8.4
2019-02-14T01:32:19.440Z,9.3
2019-02-14T01:34:19.178Z,6.9
2019-02-14T01:36:19.075Z,8.4
2019-02-14T01:38:18.765Z,8.6
2019-02-14T01:40:18.856Z,8.4
2019-02-14T01:42:18.503Z,9
2019-02-14T01:44:19.174Z,7.2
2019-02-14T01:46:19.008Z,7.6
2019-02-14T01:48:18.672Z,8.3
2019-02-14T01:50:19.380Z,8
2019-02-14T01:52:19.050Z,8.5
2019-02-14T01:54:18.726Z,8.9
2019-02-14T01:56:19.084Z,8.6
2019-02-14T01:58:18.741Z,8.3
2019-02-14T02:00:19.432Z,9.3
2019-02-14T02:02:19.016Z,7.3
2019-02-14T02:04:18.712Z,8.3
2019-02-14T02:06:18.535Z,7.2
2019-02-14T02:08:19.242Z,8.2
2019-02-14T02:10:19.383Z,8.3
2019-02-14T02:12:19.054Z,8.2
2019-02-14T02:14:18.720Z,7.8
2019-02-14T02:16:18.735Z,7.2
2019-02-14T02:18:18.485Z,8
2019-02-14T02:20:19.153Z,7.3
2019-02-14T02:22:18.809Z,6.5
2019-02-14T02:24:18.471Z,7.7
2019-02-14T02:26:18.985Z,7.7
2019-02-14T02:28:18.629Z,7.9
2019-02-14T02:30:19.319Z,7.8
2019-02-14T02:32:19.003Z,8.4
2019-02-14T02:34:18.702Z,9.3
2019-02-14T02:36:19.173Z,7.5
2019-02-14T02:38:18.834Z,8
2019-02-14T02:40:19.026Z,6.4
2019-02-14T02:42:18.676Z,7.4
2019-02-14T02:44:19.322Z,7.1
2019-02-14T02:46:18.733Z,6.3
2019-02-14T02:48:19.415Z,6.5
2019-02-14T02:50:19.167Z,7.2
2019-02-14T02:52:18.826Z,6.1
2019-02-14T02:54:18.484Z,6.8
2019-02-14T02:56:18.791Z,7.1
2019-02-14T02:58:18.448Z,6.8
2019-02-14T03:00:19.150Z,7
2019-02-14T03:02:18.791Z,6.8
2019-02-14T03:04:18.463Z,6.7
2019-02-14T03:06:18.815Z,7.1
2019-02-14T03:08:18.480Z,7.1
2019-02-14T03:10:18.732Z,6.1
2019-02-14T03:12:19.392Z,6.8
2019-02-14T03:14:19.049Z,5.8
2019-02-14T03:16:18.970Z,6.2
2019-02-14T03:18:18.701Z,6.7
2019-02-14T03:20:19.388Z,6.3
2019-02-14T03:22:19.061Z,7.3
2019-02-14T03:24:18.718Z,7.6
2019-02-14T03:26:19.187Z,6.2
2019-02-14T03:28:18.829Z,5.9
2019-02-14T03:30:18.544Z,6.2
2019-02-14T03:32:19.227Z,6.7
2019-02-14T03:34:18.889Z,6
2019-02-14T03:36:19.571Z,6
2019-02-14T03:38:19.235Z,5.8
2019-02-14T03:40:19.359Z,6.3
2019-02-14T03:42:19.022Z,7.3
2019-02-14T03:44:18.673Z,5.2
2019-02-14T03:46:18.631Z,5.2
2019-02-14T03:48:19.299Z,7.4
2019-02-14T03:50:19.009Z,5.8
2019-02-14T03:52:18.705Z,5.8
2019-02-14T03:54:19.361Z,6.1
2019-02-14T03:56:18.855Z,7.1
2019-02-14T03:58:18.499Z,6.4
2019-02-14T04:00:19.161Z,6.3
2019-02-14T04:02:18.803Z,5.7
2019-02-14T04:04:18.472Z,6
2019-02-14T04:06:26.938Z,7.2
2019-02-14T04:08:19.414Z,6.7
2019-02-14T04:10:18.579Z,7.3
2019-02-14T04:12:19.238Z,6.1
2019-02-14T04:14:18.875Z,6.2
2019-02-14T04:16:19.226Z,6.9
2019-02-14T04:18:18.966Z,6.6
2019-02-14T04:20:18.610Z,7.3
2019-02-14T04:22:19.267Z,7.5
2019-02-14T04:24:18.922Z,6.1
2019-02-14T04:26:18.776Z,6.9
2019-02-14T04:28:19.402Z,7
2019-02-14T04:30:19.081Z,5.9
2019-02-14T04:32:18.770Z,7.2
2019-02-14T04:34:19.418Z,7.6
2019-02-14T04:36:19.368Z,7.8
2019-02-14T04:38:19.029Z,7.8
2019-02-14T04:40:19.242Z,7.7
2019-02-14T04:42:18.646Z,7.8
2019-02-14T04:44:19.310Z,7.4
2019-02-14T04:46:19.114Z,7.7
2019-02-14T04:48:18.770Z,6.9
2019-02-14T04:50:19.431Z,8.4
2019-02-14T04:52:19.072Z,7.8
2019-02-14T04:54:18.714Z,7.3
2019-02-14T04:56:18.574Z,6.6
2019-02-14T04:58:19.233Z,6.5
2019-02-14T05:00:18.903Z,6.3
2019-02-14T05:02:18.582Z,6.7
2019-02-14T05:04:19.248Z,7.2
2019-02-14T05:06:18.520Z,8.7
2019-02-14T05:08:19.149Z,6.9
2019-02-14T05:10:19.281Z,7
2019-02-14T05:12:18.960Z,6.2
2019-02-14T05:14:18.640Z,7.6
2019-02-14T05:16:18.590Z,8.8
2019-02-14T05:18:19.329Z,8.2
2019-02-14T05:20:19.006Z,7
2019-02-14T05:22:18.645Z,7.3
2019-02-14T05:24:19.310Z,8
2019-02-14T05:26:18.585Z,6.9
2019-02-14T05:28:19.220Z,7
2019-02-14T05:30:18.867Z,8.6
2019-02-14T05:32:18.516Z,6.5
2019-02-14T05:34:19.171Z,6.7
2019-02-14T05:36:18.672Z,6.6
2019-02-14T05:38:19.341Z,6.4
2019-02-14T05:40:18.463Z,6.1
2019-02-14T05:42:19.105Z,6.3
2019-02-14T05:44:18.769Z,7.3
2019-02-14T05:46:19.131Z,7.7
2019-02-14T05:48:18.787Z,6.4
2019-02-14T05:50:18.468Z,7.3
2019-02-14T05:52:19.117Z,6.6
2019-02-14T05:54:18.755Z,6.7
2019-02-14T05:56:19.095Z,4.8
2019-02-14T05:58:18.759Z,5.4
2019-02-14T06:00:19.457Z,6.6
2019-02-14T06:02:19.169Z,6.2
2019-02-14T06:04:18.812Z,7.4
2019-02-14T06:06:19.141Z,7.7
2019-02-14T06:08:18.812Z,5.7
2019-02-14T06:10:18.981Z,8.4
2019-02-14T06:12:18.669Z,6.1
2019-02-14T06:14:19.331Z,6
2019-02-14T06:16:18.596Z,7.1
2019-02-14T06:18:19.328Z,6.1
2019-02-14T06:20:19.004Z,6.4
2019-02-14T06:22:18.696Z,6.8
2019-02-14T06:24:19.361Z,6.8
2019-02-14T06:26:19.259Z,5.9
2019-02-14T06:28:18.894Z,6.6
2019-02-14T06:30:18.557Z,6.2
2019-02-14T06:32:19.197Z,6.2
2019-02-14T06:34:18.853Z,6.1
2019-02-14T06:36:18.657Z,6.2
2019-02-14T06:38:19.327Z,6.5
2019-02-14T06:40:18.467Z,6.2
2019-02-14T06:42:19.128Z,7.5
2019-02-14T06:44:18.769Z,6.2
2019-02-14T06:46:19.080Z,6.5
2019-02-14T06:48:18.744Z,6.5
2019-02-14T06:50:19.439Z,6.4
2019-02-14T06:52:19.108Z,5.9
2019-02-14T06:54:18.768Z,6.1
2019-02-14T06:56:19.126Z,6.6
2019-02-14T06:58:18.791Z,5.6
2019-02-14T07:00:18.492Z,6.3
2019-02-14T07:02:19.154Z,7.1
2019-02-14T07:04:18.824Z,6.3
2019-02-14T07:06:19.100Z,7.2
2019-02-14T07:08:18.731Z,6.4
2019-02-14T07:10:18.829Z,6
2019-02-14T07:12:18.472Z,6
2019-02-14T07:14:19.148Z,6.3
2019-02-14T07:16:19.425Z,6.1
2019-02-14T07:18:19.192Z,7.2
2019-02-14T07:20:18.906Z,6.6
2019-02-14T07:22:18.568Z,6.7
2019-02-14T07:24:19.228Z,6.6
2019-02-14T07:26:19.026Z,6.5
2019-02-14T07:28:18.670Z,7.6
2019-02-14T07:30:19.337Z,7.1
2019-02-14T07:32:18.998Z,7.1
2019-02-14T07:34:18.660Z,7.6
2019-02-14T07:36:18.981Z,8.2
2019-02-14T07:38:18.610Z,8.1
2019-02-14T07:40:18.721Z,7
2019-02-14T07:42:19.355Z,6.7
2019-02-14T07:44:19.004Z,7.1
2019-02-14T07:46:22.632Z,7.3
2019-02-14T07:48:18.615Z,7.4
2019-02-14T07:50:19.317Z,7.5
2019-02-14T07:52:24.969Z,7.1
2019-02-14T07:54:19.037Z,8.5
2019-02-14T07:56:19.286Z,7.4
2019-02-14T07:58:18.986Z,6.7
2019-02-14T08:00:18.668Z,8
2019-02-14T08:02:19.362Z,7.6
2019-02-14T08:04:19.014Z,6.7
2019-02-14T08:06:18.886Z,7.2
2019-02-14T08:08:18.548Z,7.1
2019-02-14T08:10:18.678Z,8.1
2019-02-14T08:12:19.343Z,8.1
2019-02-14T08:14:18.972Z,7.2
2019-02-14T08:16:19.311Z,6.9
2019-02-14T08:18:19.039Z,7.3
2019-02-14T08:20:18.694Z,7.4
2019-02-14T08:22:19.355Z,7.1
2019-02-14T08:24:19.041Z,7.9
2019-02-14T08:26:19.292Z,7.2
2019-02-14T08:28:18.935Z,8.2
2019-02-14T08:30:18.625Z,7.4
2019-02-14T08:32:19.296Z,6.9
2019-02-14T08:34:18.968Z,6.3
2019-02-14T08:36:19.300Z,7
2019-02-14T08:38:18.942Z,8.1
2019-02-14T08:40:19.041Z,7.9
2019-02-14T08:42:18.697Z,8.6
2019-02-14T08:44:19.358Z,7.3
2019-02-14T08:46:19.222Z,6.8
2019-02-14T08:48:18.899Z,6.3
2019-02-14T08:50:18.542Z,7
2019-02-14T08:52:19.194Z,7.9
2019-02-14T08:54:18.847Z,6.5
2019-02-14T08:56:19.319Z,6.9
2019-02-14T08:58:18.990Z,7.5
2019-02-14T09:00:18.649Z,7.8
2019-02-14T09:02:19.335Z,7
2019-02-14T09:04:19.020Z,7.5
2019-02-14T09:06:18.546Z,6.2
2019-02-14T09:08:19.205Z,6.7
2019-02-14T09:10:19.333Z,6.6
2019-02-14T09:12:18.996Z,6.5
2019-02-14T09:14:18.661Z,6.6
2019-02-14T09:16:19.076Z,7.4
2019-02-14T09:18:18.824Z,6.7
2019-02-14T09:20:18.495Z,8.4
2019-02-14T09:22:19.149Z,6.9
2019-02-14T09:24:18.813Z,7.4
2019-02-14T09:26:18.689Z,6.6
2019-02-14T09:28:19.331Z,8.5
2019-02-14T09:30:18.991Z,8.1
2019-02-14T09:32:19.409Z,8.2
2019-02-14T09:34:19.073Z,9.8
2019-02-14T09:36:19.362Z,9.6
2019-02-14T09:38:19.011Z,8.3
2019-02-14T09:40:19.158Z,7.9
2019-02-14T09:42:18.807Z,7.7
2019-02-14T09:44:18.443Z,9.1
2019-02-14T09:46:19.325Z,9.4
2019-02-14T09:48:19.012Z,9.3
2019-02-14T09:50:18.756Z,9.3
2019-02-14T09:52:19.385Z,8
2019-02-14T09:54:19.080Z,8.2
2019-02-14T09:56:19.275Z,8.4
2019-02-14T09:58:18.939Z,7.6
2019-02-14T10:00:18.634Z,7.4
2019-02-14T10:02:18.578Z,8.3
2019-02-14T10:04:19.260Z,8.8
2019-02-14T10:06:19.055Z,7.8
2019-02-14T10:08:18.720Z,9.3
2019-02-14T10:10:18.885Z,8.3
2019-02-14T10:12:18.559Z,6.7
2019-02-14T10:14:19.196Z,8.3
2019-02-14T10:16:18.559Z,9.6
2019-02-14T10:18:19.274Z,7
2019-02-14T10:20:18.978Z,6.4
2019-02-14T10:22:18.451Z,7.6
2019-02-14T10:24:19.093Z,8
2019-02-14T10:26:18.937Z,8.6
2019-02-14T10:28:18.633Z,7.1
2019-02-14T10:30:19.289Z,7.3
2019-02-14T10:32:18.944Z,5.7
2019-02-14T10:34:18.610Z,6.3
2019-02-14T10:36:18.985Z,6.5
2019-02-14T10:38:22.190Z,5.7
2019-02-14T10:40:18.920Z,6.1
2019-02-14T10:42:18.601Z,6.2
2019-02-14T10:44:19.267Z,6.8
2019-02-14T10:46:18.555Z,6.7
2019-02-14T10:48:19.241Z,6.8
2019-02-14T10:50:18.922Z,6.7
2019-02-14T10:52:18.590Z,6.5
2019-02-14T10:54:19.253Z,7.5
2019-02-14T10:56:18.548Z,6.5
2019-02-14T10:58:19.211Z,7.9
2019-02-14T11:00:18.903Z,7
2019-02-14T11:02:18.583Z,6.5
2019-02-14T11:04:19.221Z,6.2
2019-02-14T11:06:19.114Z,5.7
2019-02-14T11:08:18.757Z,6.4
2019-02-14T11:10:18.928Z,7.2
2019-02-14T11:12:18.609Z,6.9
2019-02-14T11:14:19.283Z,6.9
2019-02-14T11:16:18.490Z,5.6
2019-02-14T11:18:19.214Z,6.1
2019-02-14T11:20:18.927Z,7.5
2019-02-14T11:22:18.595Z,6
2019-02-14T11:24:19.260Z,6.6
2019-02-14T11:26:18.539Z,6.4
2019-02-14T11:28:19.202Z,6.2
2019-02-14T11:30:18.884Z,6.4
2019-02-14T11:32:18.536Z,5.9
2019-02-14T11:34:19.189Z,6.7
2019-02-14T11:36:19.016Z,7
2019-02-14T11:38:18.677Z,7.1
2019-02-14T11:40:18.837Z,6.4
2019-02-14T11:42:18.501Z,7.2
2019-02-14T11:44:19.167Z,6.5
2019-02-14T11:46:18.471Z,7.6
2019-02-14T11:48:19.139Z,6.5
2019-02-14T11:50:18.838Z,6.5
2019-02-14T11:52:18.519Z,6.8
2019-02-14T11:54:19.166Z,6.2
2019-02-14T11:56:18.489Z,7
2019-02-14T11:58:19.151Z,6.9
2019-02-14T12:00:18.833Z,5.9
2019-02-14T12:02:18.530Z,7.6
2019-02-14T12:04:19.207Z,7
2019-02-14T12:06:18.614Z,6.9
2019-02-14T12:08:19.262Z,8.6
2019-02-14T12:10:19.411Z,7.3
2019-02-14T12:12:20.676Z,8.1
2019-02-14T12:14:18.504Z,8.7
2019-02-14T12:16:19.348Z,8.7
2019-02-14T12:18:19.071Z,8.1
2019-02-14T12:20:18.735Z,7.9
2019-02-14T12:22:19.383Z,5.9
2019-02-14T12:24:19.079Z,7
2019-02-14T12:26:19.016Z,7.3
2019-02-14T12:28:18.659Z,7.3
2019-02-14T12:30:19.431Z,7.5
2019-02-14T12:32:19.075Z,8.4
2019-02-14T12:34:18.749Z,7.1
2019-02-14T12:36:18.590Z,8.5
2019-02-14T12:38:19.727Z,7.6
2019-02-14T12:40:18.955Z,8.7
2019-02-14T12:42:18.604Z,7.3
2019-02-14T12:44:19.262Z,6.8
2019-02-14T12:46:18.527Z,7.2
2019-02-14T12:48:19.165Z,7.8
2019-02-14T12:50:18.825Z,7.6
2019-02-14T12:52:18.476Z,9.1
2019-02-14T12:54:19.134Z,7.6
2019-02-14T12:56:18.510Z,8
2019-02-14T12:58:19.190Z,8.8
2019-02-14T13:00:18.880Z,7.3
2019-02-14T13:02:19.280Z,9.2
2019-02-14T13:04:18.930Z,8.4
2019-02-14T13:06:18.502Z,9.2
2019-02-14T13:08:19.145Z,8.6
2019-02-14T13:10:19.307Z,7.4
2019-02-14T13:12:18.959Z,8.6
2019-02-14T13:14:18.626Z,7.8
2019-02-14T13:16:18.995Z,8.4
2019-02-14T13:18:18.773Z,8.1
2019-02-14T13:20:18.474Z,9.1
2019-02-14T13:22:19.157Z,9.2
2019-02-14T13:24:18.805Z,9.1
2019-02-14T13:26:18.626Z,9.4
2019-02-14T13:28:19.299Z,7.9
2019-02-14T13:30:18.989Z,8.4
2019-02-14T13:32:18.656Z,8.8
2019-02-14T13:34:19.326Z,7.8
2019-02-14T13:36:19.230Z,8.2
2019-02-14T13:38:18.901Z,8.4
2019-02-14T13:40:19.169Z,8.3
2019-02-14T13:42:18.831Z,8.1
2019-02-14T13:44:18.476Z,8.3
2019-02-14T13:46:19.425Z,7.9
2019-02-14T13:48:19.123Z,8.2
2019-02-14T13:50:18.802Z,8.7
2019-02-14T13:52:18.455Z,8.3
2019-02-14T13:54:19.161Z,7.4
2019-02-14T13:56:19.289Z,8.2
2019-02-14T13:58:18.962Z,9.2
2019-02-14T14:00:18.638Z,7.9
2019-02-14T14:02:19.294Z,7.5
2019-02-14T14:04:18.969Z,8.3
2019-02-14T14:06:18.851Z,8.5
2019-02-14T14:08:18.553Z,9.3
2019-02-14T14:10:18.701Z,8.1
2019-02-14T14:12:19.120Z,8.8
2019-02-14T14:14:18.809Z,9.8
2019-02-14T14:16:19.237Z,9.2
2019-02-14T14:18:18.975Z,8.9
2019-02-14T14:20:18.663Z,7.7
2019-02-14T14:22:19.307Z,7.8
2019-02-14T14:24:18.979Z,7.2
2019-02-14T14:26:18.820Z,6.8
2019-02-14T14:28:18.487Z,7.5
2019-02-14T14:30:19.193Z,8
2019-02-14T14:32:18.887Z,7
2019-02-14T14:34:18.579Z,8.5
2019-02-14T14:36:19.362Z,7.8
2019-02-14T14:38:19.080Z,7.6
2019-02-14T14:40:20.368Z,7.4
2019-02-14T14:42:19.191Z,6.8
2019-02-14T14:44:18.874Z,6.7
2019-02-14T14:46:18.779Z,6.4
2019-02-14T14:48:20.005Z,7.1
2019-02-14T14:50:18.753Z,7.5
2019-02-14T14:52:19.422Z,8.7
2019-02-14T14:54:19.081Z,7.6
2019-02-14T14:56:18.979Z,5.7
2019-02-14T14:58:18.644Z,6.4
2019-02-14T15:00:19.338Z,7
2019-02-14T15:02:19.011Z,6.8
2019-02-14T15:04:18.652Z,7.2
2019-02-14T15:06:18.610Z,6.4
2019-02-14T15:08:19.265Z,6.7
2019-02-14T15:10:19.427Z,7.9
2019-02-14T15:12:19.104Z,6.7
2019-02-14T15:14:18.790Z,6.2
2019-02-14T15:16:19.142Z,6.4
2019-02-14T15:18:18.901Z,6.7
2019-02-14T15:20:18.645Z,6.2
2019-02-14T15:22:19.308Z,6.9
2019-02-14T15:24:18.988Z,6.8
2019-02-14T15:26:18.948Z,5.8
2019-02-14T15:28:18.645Z,5.6
2019-02-14T15:30:19.362Z,6.6
2019-02-14T15:32:19.044Z,7.4
2019-02-14T15:34:18.721Z,6.1
2019-02-14T15:36:19.017Z,5.7
2019-02-14T15:38:18.673Z,6.1
2019-02-14T15:40:18.847Z,6
2019-02-14T15:42:18.530Z,6.1
2019-02-14T15:44:19.211Z,5.9
2019-02-14T15:46:19.129Z,7
2019-02-14T15:48:18.811Z,6.4
2019-02-14T15:50:18.511Z,6.7
2019-02-14T15:52:19.172Z,7.2
2019-02-14T15:54:18.849Z,7.8
2019-02-14T15:56:18.519Z,6.8
2019-02-14T15:58:19.213Z,8.2
2019-02-14T16:00:18.904Z,5.8
2019-02-14T16:02:18.579Z,6.9
2019-02-14T16:04:19.259Z,5.7
2019-02-14T16:06:19.097Z,5.7
2019-02-14T16:08:19.540Z,5.8
2019-02-14T16:10:18.995Z,5.6
2019-02-14T16:12:19.925Z,5.6
2019-02-14T16:14:19.211Z,6.1
2019-02-14T16:16:20.513Z,5
2019-02-14T16:18:18.760Z,6.3
2019-02-14T16:20:19.819Z,6.2
2019-02-14T16:22:19.509Z,5.7
2019-02-14T16:24:19.249Z,6.2
2019-02-14T16:26:18.801Z,5.9
2019-02-14T16:28:19.450Z,5.5
2019-02-14T16:30:19.125Z,5.7
2019-02-14T16:32:18.806Z,5.4
2019-02-14T16:34:18.482Z,6
2019-02-14T16:36:20.685Z,6.2
2019-02-14T16:38:19.382Z,7.5
2019-02-14T16:40:27.107Z,6.2
2019-02-14T16:42:18.823Z,6.5
2019-02-14T16:44:18.496Z,6.7
2019-02-14T16:46:19.028Z,7
2019-02-14T16:48:18.695Z,6.7
2019-02-14T16:50:19.363Z,8.6
2019-02-14T16:52:19.042Z,7.5
2019-02-14T16:54:18.693Z,6.6
2019-02-14T16:56:19.074Z,7.8
2019-02-14T16:58:18.750Z,7.9
2019-02-14T17:00:19.426Z,7.8
2019-02-14T17:02:19.105Z,6.5
2019-02-14T17:04:18.770Z,7
2019-02-14T17:06:18.600Z,6.7
2019-02-14T17:08:19.255Z,8.2
2019-02-14T17:10:19.352Z,7.3
2019-02-14T17:12:19.028Z,8.7
2019-02-14T17:14:18.706Z,8.1
2019-02-14T17:16:18.511Z,7.6
2019-02-14T17:18:19.278Z,8
2019-02-14T17:20:18.949Z,7.7
2019-02-14T17:22:18.599Z,6.3
2019-02-14T17:24:19.251Z,7
2019-02-14T17:26:18.564Z,5.6
2019-02-14T17:28:19.245Z,7.1
2019-02-14T17:30:18.930Z,7.2
2019-02-14T17:32:18.603Z,7.3
2019-02-14T17:34:19.263Z,6.2
2019-02-14T17:36:19.130Z,7.6
2019-02-14T17:38:18.774Z,6.9
2019-02-14T17:40:18.980Z,8.2
2019-02-14T17:42:18.639Z,6.4
2019-02-14T17:44:19.297Z,6.9
2019-02-14T17:46:18.784Z,7
2019-02-14T17:48:19.424Z,5.8
2019-02-14T17:50:19.096Z,7.5
2019-02-14T17:52:18.777Z,8.3
2019-02-14T17:54:18.434Z,8.4
2019-02-14T17:56:18.696Z,8.2
2019-02-14T17:58:19.351Z,7
2019-02-14T18:00:19.037Z,6.3
2019-02-14T18:02:18.690Z,6.5
2019-02-14T18:04:19.344Z,6.4
2019-02-14T18:06:19.117Z,6.4
2019-02-14T18:08:18.760Z,7.3
2019-02-14T18:10:18.890Z,5.2
2019-02-14T18:12:18.543Z,7
2019-02-14T18:14:19.224Z,6.4
2019-02-14T18:16:18.643Z,7.2
2019-02-14T18:18:19.383Z,6.3
2019-02-14T18:20:19.037Z,6.2
2019-02-14T18:22:18.673Z,6.8
2019-02-14T18:24:19.357Z,7
2019-02-14T18:26:18.730Z,7.6
2019-02-14T18:28:19.398Z,6.2
2019-02-14T18:30:19.083Z,7.4
2019-02-14T18:32:18.738Z,5.2
2019-02-14T18:34:19.418Z,7.5
2019-02-14T18:36:18.677Z,6.2
2019-02-14T18:38:19.325Z,7.2
2019-02-14T18:40:18.473Z,6.5
2019-02-14T18:42:19.169Z,7.6
2019-02-14T18:44:18.835Z,7.9
2019-02-14T18:46:19.068Z,7.3
2019-02-14T18:48:18.699Z,7.9
2019-02-14T18:50:19.359Z,6.6
2019-02-14T18:52:19.054Z,8
2019-02-14T18:54:18.703Z,7.2
2019-02-14T18:56:18.637Z,8.8
2019-02-14T18:58:25.973Z,7.5
2019-02-14T19:00:19.383Z,9.4
2019-02-14T19:02:19.031Z,6.4
2019-02-14T19:04:18.691Z,8.1
2019-02-14T19:06:18.585Z,7.7
2019-02-14T19:08:19.254Z,7.8
2019-02-14T19:10:19.462Z,9.1
2019-02-14T19:12:19.108Z,7.6
2019-02-14T19:14:18.770Z,9.1
2019-02-14T19:16:19.053Z,8.8
2019-02-14T19:18:18.792Z,9.1
2019-02-14T19:20:18.469Z,8.5
2019-02-14T19:22:19.150Z,7.9
2019-02-14T19:24:18.876Z,9.3
2019-02-14T19:26:18.848Z,10
2019-02-14T19:28:18.492Z,9.5
2019-02-14T19:30:19.172Z,8.9
2019-02-14T19:32:18.819Z,10.5
2019-02-14T19:34:18.475Z,9.8
2019-02-14T19:36:19.344Z,9.9
2019-02-14T19:38:19.011Z,10
2019-02-14T19:40:19.158Z,11
2019-02-14T19:42:19.077Z,10.2
2019-02-14T19:44:18.709Z,9.6
2019-02-14T19:46:18.487Z,9.9
2019-02-14T19:48:19.147Z,10.8
2019-02-14T19:50:18.812Z,10.8
2019-02-14T19:52:18.455Z,10
2019-02-14T19:54:19.089Z,9.7
2019-02-14T19:56:18.450Z,10.6
2019-02-14T19:58:19.089Z,9
2019-02-14T20:00:18.752Z,9.6
2019-02-14T20:02:19.389Z,8.9
2019-02-14T20:04:19.040Z,10
2019-02-14T20:06:19.327Z,9.9
2019-02-14T20:08:18.974Z,10
2019-02-14T20:10:19.062Z,9.8
2019-02-14T20:12:18.741Z,9.3
2019-02-14T20:14:19.385Z,10.1
2019-02-14T20:16:18.870Z,11.4
2019-02-14T20:18:18.637Z,10.1
2019-02-14T20:20:19.317Z,9.7
2019-02-14T20:22:18.974Z,9.5
2019-02-14T20:24:18.596Z,9.8
2019-02-14T20:26:18.538Z,9.5
2019-02-14T20:28:19.206Z,9.4
2019-02-14T20:30:18.879Z,8.8
2019-02-14T20:32:18.527Z,9.7
2019-02-14T20:34:19.201Z,8.7
2019-02-14T20:36:18.502Z,9.8
2019-02-14T20:38:19.156Z,8.8
2019-02-14T20:40:19.278Z,9.4
2019-02-14T20:42:18.923Z,10.1
2019-02-14T20:44:18.548Z,8.6
2019-02-14T20:46:19.404Z,8.5
2019-02-14T20:48:19.096Z,8.7
2019-02-14T20:50:18.822Z,9.1
2019-02-14T20:52:18.476Z,8.5
2019-02-14T20:54:19.158Z,8.7
2019-02-14T20:56:18.975Z,7.5
2019-02-14T20:58:18.656Z,8.4
2019-02-14T21:00:19.306Z,7.6
2019-02-14T21:02:18.954Z,8.3
2019-02-14T21:04:18.589Z,8.6
2019-02-14T21:06:18.969Z,7.1
2019-02-14T21:08:18.612Z,7.3
2019-02-14T21:10:18.697Z,7.7
2019-02-14T21:12:19.345Z,7.9
2019-02-14T21:14:19.006Z,7.5
2019-02-14T21:16:19.329Z,9.1
2019-02-14T21:18:19.041Z,7.2
2019-02-14T21:20:18.726Z,8.3
2019-02-14T21:22:19.398Z,8.3
2019-02-14T21:24:19.090Z,7.5
2019-02-14T21:26:19.323Z,8.2
2019-02-14T21:28:19.008Z,7.3
2019-02-14T21:30:18.704Z,7.5
2019-02-14T21:32:18.461Z,7.4
2019-02-14T21:34:19.120Z,7.5
2019-02-14T21:36:18.455Z,7.3
2019-02-14T21:38:19.112Z,7.8
2019-02-14T21:40:19.362Z,7.7
2019-02-14T21:42:21.866Z,5.9
2019-02-14T21:44:18.773Z,6
2019-02-14T21:46:18.592Z,6.6
2019-02-14T21:48:19.286Z,6.4
2019-02-14T21:50:18.992Z,8
2019-02-14T21:52:18.675Z,8.1
2019-02-14T21:54:19.379Z,6.7
2019-02-14T21:56:18.469Z,7.1
2019-02-14T21:58:19.222Z,6.5
2019-02-14T22:00:18.951Z,6.8
2019-02-14T22:02:18.699Z,7.1
2019-02-14T22:04:19.427Z,6.6
2019-02-14T22:06:19.349Z,6.7
2019-02-14T22:08:19.039Z,6.8
2019-02-14T22:10:19.201Z,7.2
2019-02-14T22:12:37.055Z,6.8
2019-02-14T22:14:18.929Z,7.7
2019-02-14T22:16:19.217Z,6.8
2019-02-14T22:18:19.009Z,6.6
2019-02-14T22:20:18.686Z,6.7
2019-02-14T22:22:19.341Z,6.5
2019-02-14T22:24:19.008Z,6.6
2019-02-14T22:26:18.829Z,6.8
2019-02-14T22:28:18.477Z,7.4
2019-02-14T22:30:19.133Z,7.4
2019-02-14T22:32:18.806Z,6.8
2019-02-14T22:34:18.449Z,5.6
2019-02-14T22:36:19.259Z,6.2
2019-02-14T22:38:18.911Z,5.4
2019-02-14T22:40:19.045Z,5.9
2019-02-14T22:42:18.699Z,5.9
2019-02-14T22:44:19.347Z,6.5
2019-02-14T22:46:18.598Z,5.2
2019-02-14T22:48:19.234Z,6.7
2019-02-14T22:50:18.880Z,6.9
2019-02-14T22:52:18.502Z,6.4
2019-02-14T22:54:19.136Z,7.1
2019-02-14T22:56:18.975Z,5.1
2019-02-14T22:58:18.617Z,5.5
2019-02-14T23:00:19.297Z,5.7
2019-02-14T23:02:18.941Z,6.4
2019-02-14T23:04:18.597Z,6.8
2019-02-14T23:06:18.868Z,6.3
2019-02-14T23:08:18.498Z,7
2019-02-14T23:10:18.600Z,5.3
2019-02-14T23:12:19.231Z,5.6
2019-02-14T23:14:18.851Z,6.8
2019-02-14T23:16:18.618Z,6.6
2019-02-14T23:18:19.330Z,6.2
2019-02-14T23:20:18.992Z,7.3
2019-02-14T23:22:18.626Z,7.6
2019-02-14T23:24:19.263Z,6.5
2019-02-14T23:26:19.047Z,7.6
2019-02-14T23:28:18.668Z,6.5
2019-02-14T23:30:19.318Z,6.4
2019-02-14T23:32:18.972Z,6.5
2019-02-14T23:34:18.635Z,6.4
2019-02-14T23:36:18.971Z,5.9
2019-02-14T23:38:18.634Z,6.5
2019-02-14T23:40:18.729Z,6.2
2019-02-14T23:42:19.420Z,6.3
2019-02-14T23:44:19.100Z,6.4
2019-02-14T23:46:18.868Z,5.9
2019-02-14T23:48:18.519Z,5.6
2019-02-14T23:50:19.153Z,6.5
2019-02-14T23:52:18.763Z,7.1
2019-02-14T23:54:19.402Z,6.3
2019-02-14T23:56:18.770Z,6.8
2019-02-14T23:58:19.390Z,5.5
